createdAt,value
2024-03-02T00:00:02.689Z,99.99
2024-03-02T00:01:02.748Z,99.99
2024-03-02T00:02:02.688Z,99.99
2024-03-02T00:03:02.694Z,99.99
2024-03-02T00:04:02.679Z,99.99
2024-03-02T00:05:02.626Z,99.99
2024-03-02T00:06:02.615Z,99.99
2024-03-02T00:07:02.657Z,99.99
2024-03-02T00:08:02.610Z,99.99
2024-03-02T00:09:02.594Z,99.99
2024-03-02T00:10:02.656Z,99.99
2024-03-02T00:11:02.570Z,99.99
2024-03-02T00:12:02.533Z,99.99
2024-03-02T00:13:02.542Z,99.99
2024-03-02T00:14:02.513Z,99.99
2024-03-02T00:15:02.561Z,99.99
2024-03-02T00:16:02.630Z,99.99
2024-03-02T00:17:02.481Z,99.99
2024-03-02T00:18:02.559Z,99.99
2024-03-02T00:19:02.553Z,99.99
2024-03-02T00:20:02.435Z,99.99
2024-03-02T00:21:02.424Z,99.99
2024-03-02T00:22:02.486Z,99.99
2024-03-02T00:23:02.407Z,99.99
2024-03-02T00:24:02.391Z,99.99
2024-03-02T00:25:02.407Z,99.99
2024-03-02T00:26:02.372Z,99.99
2024-03-02T00:27:02.368Z,99.99
2024-03-02T00:28:02.331Z,99.99
2024-03-02T00:29:02.316Z,99.99
2024-03-02T00:30:02.310Z,99.99
2024-03-02T00:31:02.360Z,99.99
2024-03-02T00:32:02.298Z,99.99
2024-03-02T00:33:02.351Z,99.99
2024-03-02T00:34:02.282Z,99.99
2024-03-02T00:35:02.238Z,99.99
2024-03-02T00:36:02.296Z,99.99
2024-03-02T00:37:02.371Z,99.99
2024-03-02T00:38:02.201Z,99.99
2024-03-02T00:39:02.200Z,99.99
2024-03-02T00:40:02.174Z,99.99
2024-03-02T00:41:02.202Z,99.99
2024-03-02T00:42:02.153Z,99.99
2024-03-02T00:43:02.136Z,99.99
2024-03-02T00:44:02.173Z,99.99
2024-03-02T00:45:02.121Z,99.99
2024-03-02T00:46:02.116Z,99.99
2024-03-02T00:47:02.085Z,99.99
2024-03-02T00:48:02.121Z,99.99
2024-03-02T00:49:02.132Z,99.99
2024-03-02T00:50:04.239Z,99.99
2024-03-02T00:51:02.049Z,99.99
2024-03-02T00:52:02.052Z,99.99
2024-03-02T00:53:02.008Z,99.99
2024-03-02T00:54:02.033Z,99.99
2024-03-02T00:55:02.026Z,99.99
2024-03-02T00:56:01.990Z,99.99
2024-03-02T00:57:01.985Z,99.99
2024-03-02T00:58:01.948Z,99.99
2024-03-02T00:59:01.940Z,99.99
2024-03-02T01:00:01.932Z,99.99
2024-03-02T01:01:01.963Z,99.99
2024-03-02T01:02:01.900Z,99.99
2024-03-02T01:03:01.885Z,99.99
2024-03-02T01:04:01.969Z,99.99
2024-03-02T01:05:01.876Z,99.99
2024-03-02T01:06:01.844Z,99.99
2024-03-02T01:07:01.945Z,99.99
2024-03-02T01:08:01.823Z,99.99
2024-03-02T01:09:01.823Z,99.99
2024-03-02T01:10:01.940Z,99.99
2024-03-02T01:11:01.831Z,99.99
2024-03-02T01:12:01.761Z,99.99
2024-03-02T01:13:01.773Z,99.99
2024-03-02T01:14:01.762Z,99.99
2024-03-02T01:15:01.786Z,99.99
2024-03-02T01:16:01.780Z,99.99
2024-03-02T01:17:01.708Z,99.99
2024-03-02T01:18:01.688Z,99.99
2024-03-02T01:19:01.966Z,99.99
2024-03-02T01:20:01.685Z,99.99
2024-03-02T01:21:01.651Z,99.99
2024-03-02T01:22:01.690Z,99.99
2024-03-02T01:23:01.640Z,99.99
2024-03-02T01:24:01.627Z,99.99
2024-03-02T01:25:01.665Z,99.99
2024-03-02T01:26:01.583Z,99.99
2024-03-02T01:27:01.573Z,99.99
2024-03-02T01:28:01.633Z,99.99
2024-03-02T01:29:01.584Z,99.99
2024-03-02T01:30:01.540Z,99.99
2024-03-02T01:31:01.581Z,99.99
2024-03-02T01:32:01.525Z,99.99
2024-03-02T01:33:01.572Z,99.99
2024-03-02T01:34:01.548Z,99.99
2024-03-02T01:35:01.478Z,99.99
2024-03-02T01:36:01.485Z,99.99
2024-03-02T01:37:01.507Z,99.99
2024-03-02T01:38:01.469Z,99.99
2024-03-02T01:39:01.435Z,99.99
2024-03-02T01:40:01.443Z,99.99
2024-03-02T01:41:01.390Z,99.99
2024-03-02T01:42:01.401Z,99.99
2024-03-02T01:43:01.464Z,99.99
2024-03-02T01:44:01.360Z,99.99
2024-03-02T01:45:01.410Z,99.99
2024-03-02T01:46:01.382Z,99.99
2024-03-02T01:47:01.337Z,99.99
2024-03-02T01:48:01.343Z,99.99
2024-03-02T01:49:01.332Z,99.99
2024-03-02T01:50:01.291Z,99.99
2024-03-02T01:51:01.284Z,99.99
2024-03-02T01:52:01.331Z,99.99
2024-03-02T01:53:01.249Z,99.99
2024-03-02T01:54:01.247Z,99.99
2024-03-02T01:55:01.277Z,99.99
2024-03-02T01:56:01.209Z,99.99
2024-03-02T01:57:01.252Z,99.99
2024-03-02T01:58:01.215Z,99.99
2024-03-02T01:59:01.170Z,99.99
2024-03-02T02:00:01.162Z,99.99
2024-03-02T02:01:01.407Z,99.99
2024-03-02T02:02:01.146Z,99.99
2024-03-02T02:03:01.119Z,99.99
2024-03-02T02:04:01.165Z,99.99
2024-03-02T02:05:01.089Z,99.99
2024-03-02T02:06:01.137Z,99.99
2024-03-02T02:07:01.126Z,99.99
2024-03-02T02:08:01.044Z,99.99
2024-03-02T02:09:01.033Z,99.99
2024-03-02T02:10:01.184Z,99.99
2024-03-02T02:11:01.042Z,99.99
2024-03-02T02:12:01.022Z,99.99
2024-03-02T02:13:01.068Z,99.99
2024-03-02T02:14:00.979Z,99.99
2024-03-02T02:15:00.985Z,99.99
2024-03-02T02:16:01.009Z,99.99
2024-03-02T02:17:00.973Z,99.99
2024-03-02T02:18:01.101Z,99.99
2024-03-02T02:19:00.950Z,99.99
2024-03-02T02:20:00.896Z,99.99
2024-03-02T02:21:00.909Z,99.99
2024-03-02T02:22:00.953Z,99.99
2024-03-02T02:23:00.858Z,99.99
2024-03-02T02:24:00.842Z,99.99
2024-03-02T02:25:00.857Z,99.99
2024-03-02T02:26:00.835Z,99.99
2024-03-02T02:27:00.804Z,99.99
2024-03-02T02:28:00.850Z,99.99
2024-03-02T02:29:00.779Z,99.99
2024-03-02T02:30:00.779Z,99.99
2024-03-02T02:31:00.835Z,99.99
2024-03-02T02:32:00.739Z,99.99
2024-03-02T02:33:01.016Z,99.99
2024-03-02T02:34:00.732Z,99.99
2024-03-02T02:35:00.730Z,99.99
2024-03-02T02:36:00.687Z,99.99
2024-03-02T02:37:00.713Z,99.99
2024-03-02T02:38:00.657Z,99.99
2024-03-02T02:39:00.649Z,99.99
2024-03-02T02:40:00.713Z,99.99
2024-03-02T02:41:00.635Z,99.99
2024-03-02T02:42:00.609Z,99.99
2024-03-02T02:43:00.784Z,99.99
2024-03-02T02:44:00.596Z,99.99
2024-03-02T02:45:00.597Z,99.99
2024-03-02T02:46:00.702Z,99.99
2024-03-02T02:47:00.565Z,99.99
2024-03-02T02:48:00.644Z,99.99
2024-03-02T02:49:00.694Z,99.99
2024-03-02T02:50:00.505Z,99.99
2024-03-02T02:51:00.528Z,99.99
2024-03-02T02:52:00.524Z,99.99
2024-03-02T02:53:00.495Z,99.99
2024-03-02T02:54:00.469Z,99.99
2024-03-02T02:55:00.453Z,99.99
2024-03-02T02:56:00.428Z,99.99
2024-03-02T02:57:00.415Z,99.99
2024-03-02T02:58:00.521Z,99.99
2024-03-02T02:59:00.425Z,99.99
2024-03-02T03:00:00.379Z,99.99
2024-03-02T03:01:00.496Z,99.99
2024-03-02T03:02:00.387Z,99.99
2024-03-02T03:03:00.374Z,99.99
2024-03-02T03:04:00.392Z,99.99
2024-03-02T03:05:00.349Z,99.99
2024-03-02T03:06:00.309Z,99.99
2024-03-02T03:07:00.336Z,99.99
2024-03-02T03:08:00.296Z,99.99
2024-03-02T03:09:00.276Z,99.99
2024-03-02T03:10:00.323Z,99.99
2024-03-02T03:11:00.271Z,99.99
2024-03-02T03:12:00.227Z,99.99
2024-03-02T03:13:00.337Z,99.99
2024-03-02T03:14:00.207Z,99.99
2024-03-02T03:15:00.225Z,99.99
2024-03-02T03:16:00.274Z,99.99
2024-03-02T03:17:00.163Z,99.99
2024-03-02T03:18:00.329Z,99.99
2024-03-02T03:19:00.153Z,99.99
2024-03-02T03:20:00.152Z,99.99
2024-03-02T03:21:00.137Z,99.99
2024-03-02T03:22:00.164Z,99.99
2024-03-02T03:23:00.127Z,99.99
2024-03-02T03:24:00.083Z,99.99
2024-03-02T03:25:00.166Z,99.99
2024-03-02T03:26:00.041Z,99.99
2024-03-02T03:27:00.048Z,99.99
2024-03-02T03:28:00.094Z,99.99
2024-03-02T03:29:00.005Z,99.99
2024-03-02T03:30:00.020Z,99.99
2024-03-02T03:31:00.022Z,99.99
2024-03-02T03:31:59.984Z,99.99
2024-03-02T03:32:59.962Z,99.99
2024-03-02T03:34:00.029Z,99.99
2024-03-02T03:34:59.944Z,99.99
2024-03-02T03:36:00.016Z,99.99
2024-03-02T03:37:00.029Z,99.99
2024-03-02T03:37:59.920Z,99.99
2024-03-02T03:38:59.880Z,99.99
2024-03-02T03:39:59.890Z,99.99
2024-03-02T03:40:59.868Z,99.99
2024-03-02T03:41:59.855Z,99.99
2024-03-02T03:42:59.895Z,99.99
2024-03-02T03:43:59.823Z,99.99
2024-03-02T03:44:59.820Z,99.99
2024-03-02T03:45:59.888Z,99.99
2024-03-02T03:46:59.804Z,99.99
2024-03-02T03:47:59.787Z,99.99
2024-03-02T03:48:59.805Z,99.99
2024-03-02T03:49:59.736Z,99.99
2024-03-02T03:50:59.743Z,99.99
2024-03-02T03:51:59.797Z,99.99
2024-03-02T03:52:59.718Z,99.99
2024-03-02T03:53:59.703Z,99.99
2024-03-02T03:54:59.800Z,99.99
2024-03-02T03:55:59.800Z,99.99
2024-03-02T03:56:59.766Z,99.99
2024-03-02T03:57:59.730Z,99.99
2024-03-02T03:58:59.720Z,99.99
2024-03-02T03:59:59.731Z,99.99
2024-03-02T04:00:59.803Z,99.99
2024-03-02T04:01:59.723Z,99.99
2024-03-02T04:02:59.669Z,99.99
2024-03-02T04:03:59.596Z,99.99
2024-03-02T04:04:59.562Z,99.99
2024-03-02T04:05:59.533Z,99.99
2024-03-02T04:06:59.597Z,99.99
2024-03-02T04:07:59.518Z,99.99
2024-03-02T04:08:59.546Z,99.99
2024-03-02T04:09:59.587Z,99.99
2024-03-02T04:10:59.508Z,99.99
2024-03-02T04:11:59.469Z,99.99
2024-03-02T04:12:59.537Z,99.99
2024-03-02T04:13:59.558Z,99.99
2024-03-02T04:14:59.434Z,99.99
2024-03-02T04:15:59.444Z,99.99
2024-03-02T04:16:59.405Z,99.99
2024-03-02T04:17:59.424Z,99.99
2024-03-02T04:18:59.445Z,99.99
2024-03-02T04:19:59.352Z,99.99
2024-03-02T04:20:59.355Z,99.99
2024-03-02T04:22:01.641Z,99.99
2024-03-02T04:23:00.342Z,99.99
2024-03-02T04:23:59.321Z,99.99
2024-03-02T04:24:59.361Z,99.99
2024-03-02T04:25:59.282Z,99.99
2024-03-02T04:26:59.273Z,99.99
2024-03-02T04:27:59.387Z,99.99
2024-03-02T04:28:59.263Z,99.99
2024-03-02T04:29:59.232Z,99.99
2024-03-02T04:30:59.319Z,99.99
2024-03-02T04:31:59.216Z,99.99
2024-03-02T04:32:59.306Z,99.99
2024-03-02T04:33:59.211Z,99.99
2024-03-02T04:34:59.189Z,99.99
2024-03-02T04:35:59.161Z,99.99
2024-03-02T04:36:59.214Z,99.99
2024-03-02T04:37:59.143Z,99.99
2024-03-02T04:38:59.113Z,99.99
2024-03-02T04:39:59.151Z,99.99
2024-03-02T04:40:59.115Z,99.99
2024-03-02T04:41:59.097Z,99.99
2024-03-02T04:42:59.158Z,99.99
2024-03-02T04:43:59.055Z,99.99
2024-03-02T04:44:59.048Z,99.99
2024-03-02T04:45:59.094Z,99.99
2024-03-02T04:46:59.053Z,99.99
2024-03-02T04:47:59.017Z,99.99
2024-03-02T04:48:59.103Z,99.99
2024-03-02T04:49:58.980Z,99.99
2024-03-02T04:50:58.962Z,99.99
2024-03-02T04:51:59.009Z,99.99
2024-03-02T04:52:58.956Z,99.99
2024-03-02T04:53:58.924Z,99.99
2024-03-02T04:54:58.958Z,99.99
2024-03-02T04:55:58.900Z,99.99
2024-03-02T04:56:58.923Z,99.99
2024-03-02T04:57:58.966Z,99.99
2024-03-02T04:58:58.859Z,99.99
2024-03-02T04:59:58.845Z,99.99
2024-03-02T05:00:58.910Z,99.99
2024-03-02T05:01:58.836Z,99.99
2024-03-02T05:02:58.807Z,99.99
2024-03-02T05:03:58.884Z,99.99
2024-03-02T05:04:58.796Z,99.99
2024-03-02T05:05:58.795Z,99.99
2024-03-02T05:06:58.807Z,99.99
2024-03-02T05:07:58.756Z,99.99
2024-03-02T05:08:58.737Z,99.99
2024-03-02T05:09:58.763Z,99.99
2024-03-02T05:10:58.738Z,99.99
2024-03-02T05:11:58.697Z,99.99
2024-03-02T05:12:58.880Z,99.99
2024-03-02T05:13:58.672Z,99.99
2024-03-02T05:14:58.668Z,99.99
2024-03-02T05:15:58.706Z,99.99
2024-03-02T05:16:58.627Z,99.99
2024-03-02T05:17:58.749Z,99.99
2024-03-02T05:18:58.667Z,99.99
2024-03-02T05:19:58.604Z,99.99
2024-03-02T05:20:58.575Z,99.99
2024-03-02T05:21:58.610Z,99.99
2024-03-02T05:22:58.577Z,99.99
2024-03-02T05:23:58.540Z,99.99
2024-03-02T05:24:58.600Z,99.99
2024-03-02T05:25:58.525Z,99.99
2024-03-02T05:26:58.508Z,99.99
2024-03-02T05:27:58.600Z,99.99
2024-03-02T05:28:58.502Z,99.99
2024-03-02T05:29:58.492Z,99.99
2024-03-02T05:30:58.509Z,99.99
2024-03-02T05:31:58.443Z,99.99
2024-03-02T05:32:58.425Z,99.99
2024-03-02T05:33:58.822Z,99.99
2024-03-02T05:34:58.428Z,99.99
2024-03-02T05:35:58.388Z,99.99
2024-03-02T05:36:58.473Z,99.99
2024-03-02T05:37:58.373Z,99.99
2024-03-02T05:38:58.384Z,99.99
2024-03-02T05:39:58.421Z,99.99
2024-03-02T05:40:58.324Z,99.99
2024-03-02T05:41:58.311Z,99.99
2024-03-02T05:42:58.360Z,99.99
2024-03-02T05:43:58.308Z,99.99
2024-03-02T05:44:58.293Z,99.99
2024-03-02T05:45:58.334Z,99.99
2024-03-02T05:46:58.246Z,99.99
2024-03-02T05:47:58.285Z,99.99
2024-03-02T05:48:58.327Z,99.99
2024-03-02T05:49:58.211Z,99.99
2024-03-02T05:50:58.198Z,99.99
2024-03-02T05:51:58.236Z,99.99
2024-03-02T05:52:58.214Z,99.99
2024-03-02T05:53:58.163Z,99.99
2024-03-02T05:54:58.177Z,99.99
2024-03-02T05:55:58.151Z,99.99
2024-03-02T05:56:58.141Z,99.99
2024-03-02T05:57:58.243Z,99.99
2024-03-02T05:58:58.096Z,99.99
2024-03-02T05:59:58.098Z,99.99
2024-03-02T06:00:58.158Z,99.99
2024-03-02T06:01:58.140Z,99.99
2024-03-02T06:02:58.059Z,99.99
2024-03-02T06:03:58.111Z,99.99
2024-03-02T06:04:58.063Z,99.99
2024-03-02T06:05:58.020Z,99.99
2024-03-02T06:06:58.040Z,99.99
2024-03-02T06:07:58.002Z,99.99
2024-03-02T06:08:57.968Z,99.99
2024-03-02T06:09:58.027Z,99.99
2024-03-02T06:10:57.983Z,99.99
2024-03-02T06:11:57.944Z,99.99
2024-03-02T06:12:57.986Z,99.99
2024-03-02T06:13:57.903Z,99.99
2024-03-02T06:14:57.892Z,99.99
2024-03-02T06:15:57.982Z,99.99
2024-03-02T06:16:57.899Z,99.99
2024-03-02T06:17:57.891Z,99.99
2024-03-02T06:18:57.901Z,99.99
2024-03-02T06:19:57.828Z,99.99
2024-03-02T06:20:57.835Z,99.99
2024-03-02T06:21:57.891Z,99.99
2024-03-02T06:22:57.791Z,99.99
2024-03-02T06:23:58.040Z,99.99
2024-03-02T06:24:57.842Z,99.99
2024-03-02T06:25:57.767Z,99.99
2024-03-02T06:26:57.752Z,99.99
2024-03-02T06:27:57.744Z,99.99
2024-03-02T06:28:57.715Z,99.99
2024-03-02T06:29:57.695Z,99.99
2024-03-02T06:30:57.723Z,99.99
2024-03-02T06:31:57.678Z,99.99
2024-03-02T06:32:57.708Z,99.99
2024-03-02T06:33:57.706Z,99.99
2024-03-02T06:34:57.657Z,99.99
2024-03-02T06:35:57.644Z,99.99
2024-03-02T06:36:57.684Z,99.99
2024-03-02T06:37:57.609Z,99.99
2024-03-02T06:38:57.618Z,99.99
2024-03-02T06:39:57.641Z,99.99
2024-03-02T06:40:57.589Z,99.99
2024-03-02T06:41:57.552Z,99.99
2024-03-02T06:42:57.631Z,99.99
2024-03-02T06:43:57.524Z,99.99
2024-03-02T06:44:57.537Z,99.99
2024-03-02T06:45:57.548Z,99.99
2024-03-02T06:46:57.489Z,99.99
2024-03-02T06:47:57.515Z,99.99
2024-03-02T06:48:57.503Z,99.99
2024-03-02T06:49:57.483Z,99.99
2024-03-02T06:50:57.435Z,99.99
2024-03-02T06:51:57.531Z,99.99
2024-03-02T06:52:57.403Z,99.99
2024-03-02T06:53:57.423Z,99.99
2024-03-02T06:54:57.511Z,99.99
2024-03-02T06:55:57.373Z,99.99
2024-03-02T06:56:57.363Z,99.99
2024-03-02T06:57:57.420Z,99.99
2024-03-02T06:58:57.356Z,99.99
2024-03-02T06:59:57.342Z,99.99
2024-03-02T07:00:57.355Z,99.99
2024-03-02T07:01:57.326Z,99.99
2024-03-02T07:02:57.283Z,99.99
2024-03-02T07:03:57.377Z,99.99
2024-03-02T07:04:57.273Z,99.99
2024-03-02T07:05:57.245Z,99.99
2024-03-02T07:06:57.473Z,99.99
2024-03-02T07:07:57.233Z,99.99
2024-03-02T07:08:57.258Z,99.99
2024-03-02T07:09:57.257Z,99.99
2024-03-02T07:10:57.229Z,99.99
2024-03-02T07:11:57.175Z,99.99
2024-03-02T07:12:57.237Z,99.99
2024-03-02T07:13:57.138Z,99.99
2024-03-02T07:14:57.123Z,99.99
2024-03-02T07:15:57.163Z,99.40
2024-03-02T07:16:57.097Z,99.34
2024-03-02T07:17:57.168Z,99.44
2024-03-02T07:18:57.158Z,99.65
2024-03-02T07:19:57.149Z,99.82
2024-03-02T07:20:57.093Z,99.82
2024-03-02T07:21:57.071Z,99.15
2024-03-02T07:22:57.044Z,99.15
2024-03-02T07:23:57.025Z,98.94
2024-03-02T07:24:57.124Z,98.32
2024-03-02T07:26:56.989Z,98.72
2024-03-02T07:27:56.998Z,98.93
2024-03-02T07:28:56.947Z,99.29
2024-03-02T07:29:56.936Z,99.91
2024-03-02T07:30:56.994Z,99.99
2024-03-02T07:31:56.965Z,99.99
2024-03-02T07:32:56.954Z,99.99
2024-03-02T07:33:56.951Z,99.99
2024-03-02T07:34:56.873Z,99.99
2024-03-02T07:35:56.905Z,99.44
2024-03-02T07:36:56.954Z,99.18
2024-03-02T07:37:56.850Z,99.76
2024-03-02T07:38:56.819Z,99.34
2024-03-02T07:39:56.862Z,99.44
2024-03-02T07:40:56.817Z,99.65
2024-03-02T07:41:56.803Z,99.44
2024-03-02T07:42:56.901Z,99.34
2024-03-02T07:43:56.787Z,99.19
2024-03-02T07:44:56.759Z,98.78
2024-03-02T07:45:56.966Z,99.04
2024-03-02T07:46:56.725Z,99.65
2024-03-02T07:47:56.758Z,99.82
2024-03-02T07:48:56.766Z,99.05
2024-03-02T07:49:56.912Z,98.32
2024-03-02T07:50:56.744Z,98.11
2024-03-02T07:51:56.775Z,98.38
2024-03-02T07:52:56.716Z,98.13
2024-03-02T07:53:56.632Z,97.25
2024-03-02T07:54:56.734Z,97.41
2024-03-02T07:55:56.644Z,97.09
2024-03-02T07:56:56.739Z,96.74
2024-03-02T07:57:56.823Z,96.18
2024-03-02T07:58:56.558Z,95.61
2024-03-02T07:59:56.771Z,95.67
2024-03-02T08:00:56.581Z,95.56
2024-03-02T08:01:56.629Z,95.31
2024-03-02T08:02:56.507Z,94.80
2024-03-02T08:03:56.545Z,95.00
2024-03-02T08:04:56.521Z,94.90
2024-03-02T08:05:56.471Z,94.34
2024-03-02T08:06:56.528Z,93.93
2024-03-02T08:07:56.450Z,93.93
2024-03-02T08:08:56.496Z,94.03
2024-03-02T08:09:56.524Z,93.41
2024-03-02T08:10:58.157Z,94.23
2024-03-02T08:11:56.401Z,96.02
2024-03-02T08:12:56.448Z,96.37
2024-03-02T08:13:56.406Z,96.95
2024-03-02T08:14:56.354Z,96.70
2024-03-02T08:15:56.518Z,96.08
2024-03-02T08:16:56.402Z,95.62
2024-03-02T08:17:56.372Z,95.48
2024-03-02T08:18:56.420Z,94.85
2024-03-02T08:19:56.374Z,95.02
2024-03-02T08:20:56.354Z,94.56
2024-03-02T08:21:56.378Z,94.05
2024-03-02T08:22:56.391Z,93.59
2024-03-02T08:23:56.387Z,92.77
2024-03-02T08:24:56.419Z,92.58
2024-03-02T08:25:56.268Z,92.03
2024-03-02T08:26:56.286Z,90.85
2024-03-02T08:27:56.410Z,90.20
2024-03-02T08:28:56.230Z,89.09
2024-03-02T08:29:56.218Z,87.06
2024-03-02T08:30:56.265Z,84.58
2024-03-02T08:31:56.221Z,82.59
2024-03-02T08:32:56.287Z,80.16
2024-03-02T08:33:56.196Z,78.63
2024-03-02T08:34:56.158Z,76.89
2024-03-02T08:35:56.144Z,74.01
2024-03-02T08:36:56.135Z,72.04
2024-03-02T08:37:56.219Z,71.26
2024-03-02T08:38:56.170Z,70.86
2024-03-02T08:39:56.330Z,70.42
2024-03-02T08:40:56.134Z,69.57
2024-03-02T08:41:56.116Z,69.37
2024-03-02T08:42:56.118Z,69.10
2024-03-02T08:43:56.001Z,69.51
2024-03-02T08:44:56.041Z,69.41
2024-03-02T08:45:55.986Z,69.92
2024-03-02T08:46:55.950Z,69.31
2024-03-02T08:47:55.963Z,69.03
2024-03-02T08:48:55.935Z,69.13
2024-03-02T08:49:57.342Z,69.81
2024-03-02T08:50:55.930Z,69.61
2024-03-02T08:51:56.451Z,67.58
2024-03-02T08:52:55.913Z,69.78
2024-03-02T08:53:55.917Z,71.67
2024-03-02T08:54:56.027Z,69.67
2024-03-02T08:55:55.983Z,70.72
2024-03-02T08:56:55.834Z,70.99
2024-03-02T08:57:55.832Z,71.73
2024-03-02T08:58:55.797Z,72.96
2024-03-02T08:59:55.778Z,73.54
2024-03-02T09:00:55.948Z,73.30
2024-03-02T09:01:55.836Z,71.73
2024-03-02T09:02:55.723Z,70.76
2024-03-02T09:04:55.721Z,68.87
2024-03-02T09:05:55.806Z,65.73
2024-03-02T09:06:55.849Z,67.25
2024-03-02T09:07:55.718Z,64.11
2024-03-02T09:08:55.650Z,64.92
2024-03-02T09:09:55.767Z,66.19
2024-03-02T09:10:55.687Z,65.82
2024-03-02T09:11:55.666Z,65.79
2024-03-02T09:12:55.745Z,64.55
2024-03-02T09:13:55.701Z,63.17
2024-03-02T09:14:55.597Z,65.45
2024-03-02T09:15:55.602Z,65.66
2024-03-02T09:16:55.597Z,65.62
2024-03-02T09:17:55.617Z,64.81
2024-03-02T09:18:55.537Z,65.69
2024-03-02T09:19:55.519Z,64.65
2024-03-02T09:20:55.508Z,62.57
2024-03-02T09:21:55.564Z,62.27
2024-03-02T09:22:55.489Z,62.77
2024-03-02T09:23:55.450Z,63.08
2024-03-02T09:24:55.545Z,62.34
2024-03-02T09:25:55.417Z,62.07
2024-03-02T09:26:55.410Z,63.98
2024-03-02T09:27:55.434Z,65.48
2024-03-02T09:28:55.519Z,65.92
2024-03-02T09:29:55.415Z,66.90
2024-03-02T09:30:56.914Z,69.06
2024-03-02T09:31:55.364Z,70.18
2024-03-02T09:33:17.209Z,70.31
2024-03-02T09:33:55.506Z,69.80
2024-03-02T09:34:55.370Z,70.10
2024-03-02T09:35:55.663Z,70.78
2024-03-02T09:36:55.320Z,72.52
2024-03-02T09:37:55.266Z,71.91
2024-03-02T09:38:55.279Z,71.60
2024-03-02T09:39:55.471Z,69.84
2024-03-02T09:40:55.272Z,69.23
2024-03-02T09:41:55.260Z,69.97
2024-03-02T09:42:55.321Z,69.64
2024-03-02T09:43:55.321Z,68.45
2024-03-02T09:44:55.351Z,68.28
2024-03-02T09:45:55.219Z,67.50
2024-03-02T09:46:55.150Z,68.55
2024-03-02T09:47:55.184Z,67.17
2024-03-02T09:48:55.243Z,66.77
2024-03-02T09:49:55.109Z,66.56
2024-03-02T09:50:55.098Z,65.58
2024-03-02T09:51:55.139Z,65.65
2024-03-02T09:52:55.196Z,65.82
2024-03-02T09:53:56.739Z,64.04
2024-03-02T09:54:55.059Z,64.40
2024-03-02T09:55:55.033Z,65.01
2024-03-02T09:56:55.023Z,66.23
2024-03-02T09:57:55.049Z,64.54
2024-03-02T09:58:54.994Z,63.12
2024-03-02T09:59:54.982Z,63.21
2024-03-02T10:00:55.197Z,64.94
2024-03-02T10:01:54.957Z,64.15
2024-03-02T10:02:54.961Z,64.90
2024-03-02T10:03:54.952Z,64.84
2024-03-02T10:04:54.914Z,61.66
2024-03-02T10:05:54.908Z,61.46
2024-03-02T10:06:55.128Z,61.53
2024-03-02T10:07:54.892Z,61.24
2024-03-02T10:08:54.871Z,59.54
2024-03-02T10:09:54.859Z,59.11
2024-03-02T10:10:54.886Z,57.94
2024-03-02T10:11:54.856Z,56.50
2024-03-02T10:12:54.883Z,57.67
2024-03-02T10:13:54.799Z,58.12
2024-03-02T10:14:54.788Z,59.23
2024-03-02T10:15:56.047Z,59.08
2024-03-02T10:16:54.807Z,57.23
2024-03-02T10:17:54.814Z,58.15
2024-03-02T10:18:54.895Z,59.72
2024-03-02T10:19:54.732Z,60.74
2024-03-02T10:20:54.776Z,60.84
2024-03-02T10:21:54.898Z,60.84
2024-03-02T10:22:54.727Z,61.04
2024-03-02T10:23:54.671Z,61.17
2024-03-02T10:24:59.129Z,60.97
2024-03-02T10:25:58.294Z,60.74
2024-03-02T10:26:54.645Z,61.78
2024-03-02T10:27:54.638Z,60.57
2024-03-02T10:28:54.614Z,59.95
2024-03-02T10:29:54.596Z,60.39
2024-03-02T10:30:54.937Z,60.43
2024-03-02T10:31:54.615Z,60.10
2024-03-02T10:32:54.603Z,59.67
2024-03-02T10:33:54.605Z,58.29
2024-03-02T10:34:54.525Z,55.79
2024-03-02T10:35:54.513Z,54.33
2024-03-02T10:36:54.607Z,52.24
2024-03-02T10:37:54.488Z,50.44
2024-03-02T10:38:54.491Z,50.46
2024-03-02T10:39:54.526Z,48.72
2024-03-02T10:40:54.470Z,48.52
2024-03-02T10:41:54.454Z,46.06
2024-03-02T10:42:54.499Z,45.02
2024-03-02T10:43:54.413Z,45.28
2024-03-02T10:44:54.399Z,44.27
2024-03-02T10:45:54.478Z,43.61
2024-03-02T10:46:54.378Z,45.69
2024-03-02T10:47:54.379Z,46.76
2024-03-02T10:48:54.474Z,47.55
2024-03-02T10:49:54.352Z,48.28
2024-03-02T10:50:54.340Z,48.11
2024-03-02T10:51:54.359Z,48.30
2024-03-02T10:52:54.300Z,51.09
2024-03-02T10:53:54.293Z,50.56
2024-03-02T10:54:54.376Z,51.16
2024-03-02T10:55:54.296Z,52.06
2024-03-02T10:56:54.252Z,52.67
2024-03-02T10:57:54.271Z,52.42
2024-03-02T10:58:55.002Z,51.42
2024-03-02T10:59:54.279Z,49.08
2024-03-02T11:00:54.275Z,49.11
2024-03-02T11:01:54.327Z,48.14
2024-03-02T11:02:54.174Z,47.30
2024-03-02T11:03:54.225Z,46.88
2024-03-02T11:04:54.194Z,46.68
2024-03-02T11:05:54.139Z,46.41
2024-03-02T11:06:54.174Z,46.19
2024-03-02T11:07:54.118Z,45.06
2024-03-02T11:08:54.100Z,44.42
2024-03-02T11:09:54.146Z,44.02
2024-03-02T11:10:54.102Z,43.82
2024-03-02T11:11:54.061Z,44.23
2024-03-02T11:12:54.116Z,45.01
2024-03-02T11:13:54.039Z,44.65
2024-03-02T11:14:54.048Z,44.39
2024-03-02T11:15:54.043Z,43.77
2024-03-02T11:16:54.010Z,43.98
2024-03-02T11:17:53.988Z,44.21
2024-03-02T11:18:54.081Z,42.61
2024-03-02T11:19:54.005Z,44.32
2024-03-02T11:20:54.019Z,46.30
2024-03-02T11:21:53.983Z,47.25
2024-03-02T11:22:53.944Z,47.83
2024-03-02T11:23:53.942Z,47.38
2024-03-02T11:24:54.433Z,46.22
2024-03-02T11:25:53.900Z,45.10
2024-03-02T11:26:53.882Z,43.51
2024-03-02T11:27:53.995Z,43.63
2024-03-02T11:28:53.890Z,43.85
2024-03-02T11:29:53.843Z,43.87
2024-03-02T11:30:53.928Z,44.49
2024-03-02T11:31:53.832Z,44.29
2024-03-02T11:32:53.903Z,43.99
2024-03-02T11:33:53.832Z,43.85
2024-03-02T11:34:53.823Z,42.91
2024-03-02T11:35:53.778Z,43.18
2024-03-02T11:36:53.834Z,48.29
2024-03-02T11:37:54.235Z,51.16
2024-03-02T11:38:53.847Z,48.89
2024-03-02T11:39:53.724Z,45.97
2024-03-02T11:40:53.725Z,43.27
2024-03-02T11:41:54.716Z,42.71
2024-03-02T11:42:53.807Z,40.50
2024-03-02T11:43:53.705Z,40.18
2024-03-02T11:44:53.672Z,40.76
2024-03-02T11:45:53.674Z,42.41
2024-03-02T11:46:53.686Z,43.43
2024-03-02T11:47:53.721Z,45.40
2024-03-02T11:48:53.763Z,48.08
2024-03-02T11:49:53.678Z,48.32
2024-03-02T11:50:53.619Z,48.85
2024-03-02T11:51:54.517Z,49.65
2024-03-02T11:52:53.591Z,49.22
2024-03-02T11:53:53.570Z,49.65
2024-03-02T11:54:53.614Z,50.45
2024-03-02T11:55:53.562Z,49.55
2024-03-02T11:56:53.558Z,48.75
2024-03-02T11:57:53.594Z,50.13
2024-03-02T11:58:53.948Z,48.08
2024-03-02T11:59:53.494Z,45.93
2024-03-02T12:00:53.701Z,43.63
2024-03-02T12:01:53.586Z,42.35
2024-03-02T12:02:53.455Z,40.78
2024-03-02T12:03:53.486Z,39.69
2024-03-02T12:04:53.455Z,42.99
2024-03-02T12:05:53.527Z,41.96
2024-03-02T12:06:53.461Z,42.33
2024-03-02T12:07:53.424Z,41.22
2024-03-02T12:08:53.401Z,42.05
2024-03-02T12:09:53.384Z,43.09
2024-03-02T12:10:53.432Z,43.27
2024-03-02T12:11:53.377Z,42.32
2024-03-02T12:12:53.403Z,43.23
2024-03-02T12:13:53.345Z,43.75
2024-03-02T12:14:53.346Z,43.27
2024-03-02T12:15:53.376Z,42.31
2024-03-02T12:16:53.284Z,41.47
2024-03-02T12:17:53.281Z,41.22
2024-03-02T12:18:53.276Z,39.89
2024-03-02T12:19:53.291Z,40.07
2024-03-02T12:20:53.318Z,38.85
2024-03-02T12:21:53.289Z,38.17
2024-03-02T12:22:53.256Z,38.64
2024-03-02T12:23:53.234Z,38.46
2024-03-02T12:24:53.354Z,39.77
2024-03-02T12:25:53.180Z,39.36
2024-03-02T12:26:53.176Z,38.24
2024-03-02T12:27:53.220Z,38.98
2024-03-02T12:28:53.147Z,39.29
2024-03-02T12:29:53.178Z,38.75
2024-03-02T12:30:53.199Z,40.60
2024-03-02T12:31:53.105Z,40.20
2024-03-02T12:32:53.118Z,40.72
2024-03-02T12:33:53.182Z,40.60
2024-03-02T12:34:53.158Z,40.78
2024-03-02T12:35:53.057Z,40.98
2024-03-02T12:36:53.106Z,40.68
2024-03-02T12:37:53.037Z,40.60
2024-03-02T12:38:53.107Z,40.64
2024-03-02T12:39:53.115Z,40.90
2024-03-02T12:40:53.050Z,40.26
2024-03-02T12:41:53.003Z,39.97
2024-03-02T12:42:53.276Z,39.92
2024-03-02T12:43:53.108Z,39.73
2024-03-02T12:44:53.076Z,38.79
2024-03-02T12:45:53.030Z,38.54
2024-03-02T12:47:53.021Z,36.84
2024-03-02T12:48:52.953Z,38.68
2024-03-02T12:49:52.887Z,40.70
2024-03-02T12:50:52.877Z,44.27
2024-03-02T12:51:53.088Z,42.18
2024-03-02T12:52:52.971Z,40.74
2024-03-02T12:53:52.857Z,40.52
2024-03-02T12:54:52.847Z,42.93